sensor_id;sensor_type;location;lat;lon;timestamp;temperature;humidity
19968;DHT22;10145;49.152;9.282;2023-04-15T00:01:05;4.30;99.90
19968;DHT22;10145;49.152;9.282;2023-04-15T00:03:30;4.40;99.90
19968;DHT22;10145;49.152;9.282;2023-04-15T00:05:58;4.40;99.90
19968;DHT22;10145;49.152;9.282;2023-04-15T00:08:24;4.40;99.90
19968;DHT22;10145;49.152;9.282;2023-04-15T00:10:50;4.30;99.90
19968;DHT22;10145;49.152;9.282;2023-04-15T00:13:15;4.30;99.90
19968;DHT22;10145;49.152;9.282;2023-04-15T00:15:41;4.30;99.90
19968;DHT22;10145;49.152;9.282;2023-04-15T00:18:07;4.30;99.90
19968;DHT22;10145;49.152;9.282;2023-04-15T00:20:34;4.30;99.90
19968;DHT22;10145;49.152;9.282;2023-04-15T00:23:00;4.30;99.90
19968;DHT22;10145;49.152;9.282;2023-04-15T00:25:26;4.20;99.90
19968;DHT22;10145;49.152;9.282;2023-04-15T00:27:52;4.20;99.90
19968;DHT22;10145;49.152;9.282;2023-04-15T00:30:18;4.30;99.90
19968;DHT22;10145;49.152;9.282;2023-04-15T00:32:44;4.30;99.90
19968;DHT22;10145;49.152;9.282;2023-04-15T00:35:10;4.30;99.90
19968;DHT22;10145;49.152;9.282;2023-04-15T00:37:36;4.20;99.90
19968;DHT22;10145;49.152;9.282;2023-04-15T00:40:02;4.20;99.90
19968;DHT22;10145;49.152;9.282;2023-04-15T00:42:30;4.20;99.90
19968;DHT22;10145;49.152;9.282;2023-04-15T00:44:56;4.10;99.90
19968;DHT22;10145;49.152;9.282;2023-04-15T00:47:21;4.00;99.90
19968;DHT22;10145;49.152;9.282;2023-04-15T00:49:47;4.10;99.90
19968;DHT22;10145;49.152;9.282;2023-04-15T00:52:12;4.00;99.90
19968;DHT22;10145;49.152;9.282;2023-04-15T00:54:38;4.00;99.90
19968;DHT22;10145;49.152;9.282;2023-04-15T00:57:05;4.00;99.90
19968;DHT22;10145;49.152;9.282;2023-04-15T00:59:32;4.00;99.90
19968;DHT22;10145;49.152;9.282;2023-04-15T01:01:58;3.90;99.90
19968;DHT22;10145;49.152;9.282;2023-04-15T01:04:24;3.80;99.90
19968;DHT22;10145;49.152;9.282;2023-04-15T01:06:50;3.80;99.90
19968;DHT22;10145;49.152;9.282;2023-04-15T01:09:16;3.80;99.90
19968;DHT22;10145;49.152;9.282;2023-04-15T01:11:41;3.70;99.90
19968;DHT22;10145;49.152;9.282;2023-04-15T01:14:08;3.60;99.90
19968;DHT22;10145;49.152;9.282;2023-04-15T01:16:35;3.70;99.90
19968;DHT22;10145;49.152;9.282;2023-04-15T01:19:01;3.70;99.90
19968;DHT22;10145;49.152;9.282;2023-04-15T01:21:26;3.60;99.90
19968;DHT22;10145;49.152;9.282;2023-04-15T01:23:52;3.60;99.90
19968;DHT22;10145;49.152;9.282;2023-04-15T01:26:20;3.60;99.90
19968;DHT22;10145;49.152;9.282;2023-04-15T01:28:46;3.60;99.90
19968;DHT22;10145;49.152;9.282;2023-04-15T01:31:13;3.50;99.90
19968;DHT22;10145;49.152;9.282;2023-04-15T01:33:40;3.40;99.90
19968;DHT22;10145;49.152;9.282;2023-04-15T01:36:08;3.40;99.90
19968;DHT22;10145;49.152;9.282;2023-04-15T01:38:35;3.40;99.90
19968;DHT22;10145;49.152;9.282;2023-04-15T01:41:01;3.50;99.90
19968;DHT22;10145;49.152;9.282;2023-04-15T01:43:27;3.50;99.90
19968;DHT22;10145;49.152;9.282;2023-04-15T01:45:52;3.40;99.90
19968;DHT22;10145;49.152;9.282;2023-04-15T01:48:18;3.40;99.90
19968;DHT22;10145;49.152;9.282;2023-04-15T01:50:44;3.40;99.90
19968;DHT22;10145;49.152;9.282;2023-04-15T01:53:10;3.30;99.90
19968;DHT22;10145;49.152;9.282;2023-04-15T01:55:36;3.20;99.90
19968;DHT22;10145;49.152;9.282;2023-04-15T01:58:02;3.10;99.90
19968;DHT22;10145;49.152;9.282;2023-04-15T02:00:27;3.00;99.90
19968;DHT22;10145;49.152;9.282;2023-04-15T02:02:54;3.00;99.90
19968;DHT22;10145;49.152;9.282;2023-04-15T02:05:19;3.10;99.90
19968;DHT22;10145;49.152;9.282;2023-04-15T02:07:45;3.20;99.90
19968;DHT22;10145;49.152;9.282;2023-04-15T02:10:10;3.20;99.90
19968;DHT22;10145;49.152;9.282;2023-04-15T02:12:38;3.20;99.90
19968;DHT22;10145;49.152;9.282;2023-04-15T02:15:04;3.30;99.90
19968;DHT22;10145;49.152;9.282;2023-04-15T02:17:32;3.30;99.90
19968;DHT22;10145;49.152;9.282;2023-04-15T02:19:59;3.30;99.90
19968;DHT22;10145;49.152;9.282;2023-04-15T02:22:25;3.30;99.90
19968;DHT22;10145;49.152;9.282;2023-04-15T02:24:50;3.40;99.90
19968;DHT22;10145;49.152;9.282;2023-04-15T02:27:17;3.30;99.90
19968;DHT22;10145;49.152;9.282;2023-04-15T02:29:44;3.30;99.90
19968;DHT22;10145;49.152;9.282;2023-04-15T02:32:10;3.30;99.90
19968;DHT22;10145;49.152;9.282;2023-04-15T02:34:37;3.30;99.90
19968;DHT22;10145;49.152;9.282;2023-04-15T02:37:06;3.30;99.90
19968;DHT22;10145;49.152;9.282;2023-04-15T02:39:32;3.30;99.90
19968;DHT22;10145;49.152;9.282;2023-04-15T02:41:57;3.20;99.90
19968;DHT22;10145;49.152;9.282;2023-04-15T02:44:24;3.20;99.90
19968;DHT22;10145;49.152;9.282;2023-04-15T02:46:50;3.10;99.90
19968;DHT22;10145;49.152;9.282;2023-04-15T02:49:17;3.10;99.90
19968;DHT22;10145;49.152;9.282;2023-04-15T02:51:43;3.00;99.90
19968;DHT22;10145;49.152;9.282;2023-04-15T02:54:14;3.00;99.90
19968;DHT22;10145;49.152;9.282;2023-04-15T02:56:40;3.00;99.90
19968;DHT22;10145;49.152;9.282;2023-04-15T02:59:05;3.00;99.90
19968;DHT22;10145;49.152;9.282;2023-04-15T03:01:31;3.00;99.90
19968;DHT22;10145;49.152;9.282;2023-04-15T03:03:56;3.00;99.90
19968;DHT22;10145;49.152;9.282;2023-04-15T03:06:22;2.90;99.90
19968;DHT22;10145;49.152;9.282;2023-04-15T03:08:49;2.90;99.90
19968;DHT22;10145;49.152;9.282;2023-04-15T03:11:15;3.00;99.90
19968;DHT22;10145;49.152;9.282;2023-04-15T03:13:41;3.10;99.90
19968;DHT22;10145;49.152;9.282;2023-04-15T03:16:08;3.10;99.90
19968;DHT22;10145;49.152;9.282;2023-04-15T03:18:33;3.10;99.90
19968;DHT22;10145;49.152;9.282;2023-04-15T03:20:59;3.10;99.90
19968;DHT22;10145;49.152;9.282;2023-04-15T03:23:24;3.20;99.90
19968;DHT22;10145;49.152;9.282;2023-04-15T03:25:50;3.30;99.90
19968;DHT22;10145;49.152;9.282;2023-04-15T03:28:16;3.20;99.90
19968;DHT22;10145;49.152;9.282;2023-04-15T03:30:41;3.30;99.90
19968;DHT22;10145;49.152;9.282;2023-04-15T03:33:07;3.30;99.90
19968;DHT22;10145;49.152;9.282;2023-04-15T03:35:33;3.30;99.90
19968;DHT22;10145;49.152;9.282;2023-04-15T03:37:59;3.30;99.90
19968;DHT22;10145;49.152;9.282;2023-04-15T03:40:24;3.40;99.90
19968;DHT22;10145;49.152;9.282;2023-04-15T03:42:50;3.40;99.90
19968;DHT22;10145;49.152;9.282;2023-04-15T03:45:15;3.50;99.90
19968;DHT22;10145;49.152;9.282;2023-04-15T03:47:41;3.50;99.90
19968;DHT22;10145;49.152;9.282;2023-04-15T03:50:07;3.40;99.90
19968;DHT22;10145;49.152;9.282;2023-04-15T03:52:32;3.30;99.90
19968;DHT22;10145;49.152;9.282;2023-04-15T03:54:58;3.20;99.90
19968;DHT22;10145;49.152;9.282;2023-04-15T03:57:24;3.20;99.90
19968;DHT22;10145;49.152;9.282;2023-04-15T03:59:49;3.10;99.90
19968;DHT22;10145;49.152;9.282;2023-04-15T04:02:15;3.20;99.90
19968;DHT22;10145;49.152;9.282;2023-04-15T04:04:41;3.20;99.90
19968;DHT22;10145;49.152;9.282;2023-04-15T04:07:08;3.20;99.90
19968;DHT22;10145;49.152;9.282;2023-04-15T04:09:33;3.20;99.90
19968;DHT22;10145;49.152;9.282;2023-04-15T04:11:59;3.20;99.90
19968;DHT22;10145;49.152;9.282;2023-04-15T04:14:25;3.10;99.90
19968;DHT22;10145;49.152;9.282;2023-04-15T04:16:54;3.00;99.90
19968;DHT22;10145;49.152;9.282;2023-04-15T04:19:20;2.90;99.90
19968;DHT22;10145;49.152;9.282;2023-04-15T04:21:45;3.00;99.90
19968;DHT22;10145;49.152;9.282;2023-04-15T04:24:11;3.00;99.90
19968;DHT22;10145;49.152;9.282;2023-04-15T04:26:36;2.90;99.90
19968;DHT22;10145;49.152;9.282;2023-04-15T04:29:02;2.80;99.90
19968;DHT22;10145;49.152;9.282;2023-04-15T04:31:28;2.60;99.90
19968;DHT22;10145;49.152;9.282;2023-04-15T04:33:53;2.70;99.90
19968;DHT22;10145;49.152;9.282;2023-04-15T04:36:19;2.60;99.90
19968;DHT22;10145;49.152;9.282;2023-04-15T04:38:44;2.60;99.90
19968;DHT22;10145;49.152;9.282;2023-04-15T04:41:10;2.60;99.90
19968;DHT22;10145;49.152;9.282;2023-04-15T04:43:35;2.70;99.90
19968;DHT22;10145;49.152;9.282;2023-04-15T04:46:01;2.60;99.90
19968;DHT22;10145;49.152;9.282;2023-04-15T04:48:27;2.50;99.90
19968;DHT22;10145;49.152;9.282;2023-04-15T04:50:52;2.50;99.90
19968;DHT22;10145;49.152;9.282;2023-04-15T04:53:18;2.50;99.90
19968;DHT22;10145;49.152;9.282;2023-04-15T04:55:43;2.50;99.90
19968;DHT22;10145;49.152;9.282;2023-04-15T04:58:09;2.60;99.90
19968;DHT22;10145;49.152;9.282;2023-04-15T05:00:34;2.60;99.90
19968;DHT22;10145;49.152;9.282;2023-04-15T05:03:02;2.60;99.90
19968;DHT22;10145;49.152;9.282;2023-04-15T05:05:27;2.60;99.90
19968;DHT22;10145;49.152;9.282;2023-04-15T05:07:53;2.70;99.90
19968;DHT22;10145;49.152;9.282;2023-04-15T05:10:19;2.60;99.90
19968;DHT22;10145;49.152;9.282;2023-04-15T05:12:45;2.50;99.90
19968;DHT22;10145;49.152;9.282;2023-04-15T05:15:10;2.50;99.90
19968;DHT22;10145;49.152;9.282;2023-04-15T05:17:36;2.50;99.90
19968;DHT22;10145;49.152;9.282;2023-04-15T05:20:02;2.50;99.90
19968;DHT22;10145;49.152;9.282;2023-04-15T05:22:28;2.50;99.90
19968;DHT22;10145;49.152;9.282;2023-04-15T05:24:53;2.60;99.90
19968;DHT22;10145;49.152;9.282;2023-04-15T05:27:19;2.70;99.90
19968;DHT22;10145;49.152;9.282;2023-04-15T05:29:44;2.60;99.90
19968;DHT22;10145;49.152;9.282;2023-04-15T05:32:10;2.60;99.90
19968;DHT22;10145;49.152;9.282;2023-04-15T05:34:36;2.60;99.90
19968;DHT22;10145;49.152;9.282;2023-04-15T05:37:01;2.60;99.90
19968;DHT22;10145;49.152;9.282;2023-04-15T05:39:27;2.70;99.90
19968;DHT22;10145;49.152;9.282;2023-04-15T05:41:53;2.70;99.90
19968;DHT22;10145;49.152;9.282;2023-04-15T05:44:18;2.90;99.90
19968;DHT22;10145;49.152;9.282;2023-04-15T05:46:44;3.00;99.90
19968;DHT22;10145;49.152;9.282;2023-04-15T05:49:09;3.00;99.90
19968;DHT22;10145;49.152;9.282;2023-04-15T05:51:35;3.10;99.90
19968;DHT22;10145;49.152;9.282;2023-04-15T05:54:00;3.10;99.90
19968;DHT22;10145;49.152;9.282;2023-04-15T05:56:26;3.20;99.90
19968;DHT22;10145;49.152;9.282;2023-04-15T05:58:52;3.20;99.90
19968;DHT22;10145;49.152;9.282;2023-04-15T06:01:17;3.30;99.90
19968;DHT22;10145;49.152;9.282;2023-04-15T06:03:43;3.40;99.90
19968;DHT22;10145;49.152;9.282;2023-04-15T06:06:09;3.50;99.90
19968;DHT22;10145;49.152;9.282;2023-04-15T06:08:34;3.70;99.90
19968;DHT22;10145;49.152;9.282;2023-04-15T06:11:00;3.70;99.90
19968;DHT22;10145;49.152;9.282;2023-04-15T06:13:26;3.90;99.90
19968;DHT22;10145;49.152;9.282;2023-04-15T06:15:51;4.00;99.90
19968;DHT22;10145;49.152;9.282;2023-04-15T06:18:18;4.10;99.90
19968;DHT22;10145;49.152;9.282;2023-04-15T06:20:44;4.30;99.90
19968;DHT22;10145;49.152;9.282;2023-04-15T06:23:10;4.50;99.90
19968;DHT22;10145;49.152;9.282;2023-04-15T06:25:36;4.70;99.90
19968;DHT22;10145;49.152;9.282;2023-04-15T06:28:02;4.80;99.90
19968;DHT22;10145;49.152;9.282;2023-04-15T06:30:27;5.00;99.90
19968;DHT22;10145;49.152;9.282;2023-04-15T06:32:54;5.20;99.90
19968;DHT22;10145;49.152;9.282;2023-04-15T06:35:20;5.40;99.90
19968;DHT22;10145;49.152;9.282;2023-04-15T06:37:46;5.50;99.90
19968;DHT22;10145;49.152;9.282;2023-04-15T06:40:12;5.70;99.90
19968;DHT22;10145;49.152;9.282;2023-04-15T06:42:38;5.70;99.90
19968;DHT22;10145;49.152;9.282;2023-04-15T06:45:04;5.70;99.90
19968;DHT22;10145;49.152;9.282;2023-04-15T06:47:29;5.80;99.90
19968;DHT22;10145;49.152;9.282;2023-04-15T06:49:55;5.90;99.90
19968;DHT22;10145;49.152;9.282;2023-04-15T06:52:21;5.90;99.90
19968;DHT22;10145;49.152;9.282;2023-04-15T06:54:46;5.90;99.90
19968;DHT22;10145;49.152;9.282;2023-04-15T06:57:12;5.90;99.90
19968;DHT22;10145;49.152;9.282;2023-04-15T06:59:37;6.00;99.90
19968;DHT22;10145;49.152;9.282;2023-04-15T07:02:03;6.10;99.90
19968;DHT22;10145;49.152;9.282;2023-04-15T07:04:29;6.30;99.90
19968;DHT22;10145;49.152;9.282;2023-04-15T07:06:54;6.60;99.90
19968;DHT22;10145;49.152;9.282;2023-04-15T07:09:22;6.90;99.90
19968;DHT22;10145;49.152;9.282;2023-04-15T07:11:47;7.10;99.90
19968;DHT22;10145;49.152;9.282;2023-04-15T07:14:13;7.20;99.90
19968;DHT22;10145;49.152;9.282;2023-04-15T07:16:39;7.30;99.90
19968;DHT22;10145;49.152;9.282;2023-04-15T07:19:05;7.20;99.90
19968;DHT22;10145;49.152;9.282;2023-04-15T07:21:30;7.30;99.90
19968;DHT22;10145;49.152;9.282;2023-04-15T07:23:56;7.30;99.90
19968;DHT22;10145;49.152;9.282;2023-04-15T07:26:23;7.50;99.90
19968;DHT22;10145;49.152;9.282;2023-04-15T07:28:49;7.70;99.90
19968;DHT22;10145;49.152;9.282;2023-04-15T07:31:15;7.80;99.90
19968;DHT22;10145;49.152;9.282;2023-04-15T07:33:44;7.90;99.90
19968;DHT22;10145;49.152;9.282;2023-04-15T07:36:09;8.10;99.90
19968;DHT22;10145;49.152;9.282;2023-04-15T07:38:35;8.30;99.90
19968;DHT22;10145;49.152;9.282;2023-04-15T07:41:01;8.40;99.90
19968;DHT22;10145;49.152;9.282;2023-04-15T07:43:26;8.60;99.90
19968;DHT22;10145;49.152;9.282;2023-04-15T07:45:52;8.80;99.90
19968;DHT22;10145;49.152;9.282;2023-04-15T07:48:18;8.90;99.90
19968;DHT22;10145;49.152;9.282;2023-04-15T07:50:43;8.90;99.90
19968;DHT22;10145;49.152;9.282;2023-04-15T07:53:09;8.80;99.90
19968;DHT22;10145;49.152;9.282;2023-04-15T07:55:34;8.80;99.90
19968;DHT22;10145;49.152;9.282;2023-04-15T07:58:00;8.90;99.90
19968;DHT22;10145;49.152;9.282;2023-04-15T08:00:26;9.10;99.90
19968;DHT22;10145;49.152;9.282;2023-04-15T08:02:52;9.20;99.90
19968;DHT22;10145;49.152;9.282;2023-04-15T08:05:18;9.40;99.90
19968;DHT22;10145;49.152;9.282;2023-04-15T08:07:44;9.60;99.90
19968;DHT22;10145;49.152;9.282;2023-04-15T08:10:10;9.50;99.90
19968;DHT22;10145;49.152;9.282;2023-04-15T08:12:36;9.50;99.90
19968;DHT22;10145;49.152;9.282;2023-04-15T08:15:02;9.70;99.90
19968;DHT22;10145;49.152;9.282;2023-04-15T08:17:28;9.90;99.90
19968;DHT22;10145;49.152;9.282;2023-04-15T08:19:53;10.20;99.90
19968;DHT22;10145;49.152;9.282;2023-04-15T08:22:19;10.40;99.90
19968;DHT22;10145;49.152;9.282;2023-04-15T08:24:45;10.50;99.90
19968;DHT22;10145;49.152;9.282;2023-04-15T08:27:10;10.60;99.90
19968;DHT22;10145;49.152;9.282;2023-04-15T08:29:36;10.70;99.90
19968;DHT22;10145;49.152;9.282;2023-04-15T08:32:02;11.00;99.90
19968;DHT22;10145;49.152;9.282;2023-04-15T08:34:28;10.90;99.90
19968;DHT22;10145;49.152;9.282;2023-04-15T08:36:54;10.70;99.90
19968;DHT22;10145;49.152;9.282;2023-04-15T08:39:27;10.90;99.90
19968;DHT22;10145;49.152;9.282;2023-04-15T08:42:00;11.30;99.90
19968;DHT22;10145;49.152;9.282;2023-04-15T08:44:29;11.40;99.90
19968;DHT22;10145;49.152;9.282;2023-04-15T08:47:00;11.40;99.90
19968;DHT22;10145;49.152;9.282;2023-04-15T08:49:28;11.50;99.90
19968;DHT22;10145;49.152;9.282;2023-04-15T08:51:54;11.70;99.90
19968;DHT22;10145;49.152;9.282;2023-04-15T08:54:22;11.90;99.90
19968;DHT22;10145;49.152;9.282;2023-04-15T08:56:49;12.00;99.90
19968;DHT22;10145;49.152;9.282;2023-04-15T08:59:14;12.10;99.90
19968;DHT22;10145;49.152;9.282;2023-04-15T09:01:41;12.30;99.90
19968;DHT22;10145;49.152;9.282;2023-04-15T09:04:07;12.30;99.90
19968;DHT22;10145;49.152;9.282;2023-04-15T09:06:33;12.30;99.90
19968;DHT22;10145;49.152;9.282;2023-04-15T09:08:59;12.40;99.90
19968;DHT22;10145;49.152;9.282;2023-04-15T09:11:25;12.50;99.90
19968;DHT22;10145;49.152;9.282;2023-04-15T09:13:51;12.70;99.90
19968;DHT22;10145;49.152;9.282;2023-04-15T09:16:17;13.00;99.90
19968;DHT22;10145;49.152;9.282;2023-04-15T09:18:43;13.30;99.90
19968;DHT22;10145;49.152;9.282;2023-04-15T09:21:14;13.60;99.90
19968;DHT22;10145;49.152;9.282;2023-04-15T09:23:56;13.60;99.90
19968;DHT22;10145;49.152;9.282;2023-04-15T09:26:36;13.40;99.90
19968;DHT22;10145;49.152;9.282;2023-04-15T09:29:09;13.10;99.70
19968;DHT22;10145;49.152;9.282;2023-04-15T09:31:38;13.30;99.70
19968;DHT22;10145;49.152;9.282;2023-04-15T09:34:04;13.30;99.30
19968;DHT22;10145;49.152;9.282;2023-04-15T09:39:13;13.80;98.20
19968;DHT22;10145;49.152;9.282;2023-04-15T09:41:38;14.00;97.70
19968;DHT22;10145;49.152;9.282;2023-04-15T09:44:05;14.20;97.50
19968;DHT22;10145;49.152;9.282;2023-04-15T09:46:41;14.30;97.80
19968;DHT22;10145;49.152;9.282;2023-04-15T09:49:08;14.60;96.80
19968;DHT22;10145;49.152;9.282;2023-04-15T09:51:34;14.80;97.00
19968;DHT22;10145;49.152;9.282;2023-04-15T09:54:01;14.60;96.30
19968;DHT22;10145;49.152;9.282;2023-04-15T09:56:35;14.60;97.10
19968;DHT22;10145;49.152;9.282;2023-04-15T09:59:02;14.60;96.20
19968;DHT22;10145;49.152;9.282;2023-04-15T10:01:28;15.10;95.70
19968;DHT22;10145;49.152;9.282;2023-04-15T10:03:56;15.30;95.10
19968;DHT22;10145;49.152;9.282;2023-04-15T10:06:24;15.30;94.50
19968;DHT22;10145;49.152;9.282;2023-04-15T10:08:50;15.80;93.10
19968;DHT22;10145;49.152;9.282;2023-04-15T10:11:17;15.90;94.00
19968;DHT22;10145;49.152;9.282;2023-04-15T10:13:44;16.20;92.70
19968;DHT22;10145;49.152;9.282;2023-04-15T10:16:13;16.30;91.60
19968;DHT22;10145;49.152;9.282;2023-04-15T10:18:47;16.30;91.50
19968;DHT22;10145;49.152;9.282;2023-04-15T10:21:15;16.00;94.00
19968;DHT22;10145;49.152;9.282;2023-04-15T10:23:44;16.10;91.80
19968;DHT22;10145;49.152;9.282;2023-04-15T10:26:11;15.90;92.40
19968;DHT22;10145;49.152;9.282;2023-04-15T10:28:37;16.10;91.80
19968;DHT22;10145;49.152;9.282;2023-04-15T10:31:03;16.00;91.70
19968;DHT22;10145;49.152;9.282;2023-04-15T10:33:30;15.60;91.60
19968;DHT22;10145;49.152;9.282;2023-04-15T10:35:56;16.00;92.20
19968;DHT22;10145;49.152;9.282;2023-04-15T10:38:41;16.30;91.20
19968;DHT22;10145;49.152;9.282;2023-04-15T10:41:21;16.40;90.90
19968;DHT22;10145;49.152;9.282;2023-04-15T10:48:50;16.00;91.70
19968;DHT22;10145;49.152;9.282;2023-04-15T10:51:26;16.00;92.10
19968;DHT22;10145;49.152;9.282;2023-04-15T10:53:56;15.90;91.20
19968;DHT22;10145;49.152;9.282;2023-04-15T10:56:23;15.80;91.50
19968;DHT22;10145;49.152;9.282;2023-04-15T10:58:48;15.60;92.10
19968;DHT22;10145;49.152;9.282;2023-04-15T11:01:14;15.50;92.10
19968;DHT22;10145;49.152;9.282;2023-04-15T11:03:41;15.00;92.00
19968;DHT22;10145;49.152;9.282;2023-04-15T11:06:07;14.60;93.90
19968;DHT22;10145;49.152;9.282;2023-04-15T11:08:58;14.60;93.60
19968;DHT22;10145;49.152;9.282;2023-04-15T11:14:32;14.60;93.80
19968;DHT22;10145;49.152;9.282;2023-04-15T11:16:58;14.60;93.10
19968;DHT22;10145;49.152;9.282;2023-04-15T11:19:24;14.60;94.30
19968;DHT22;10145;49.152;9.282;2023-04-15T11:21:50;14.90;94.60
19968;DHT22;10145;49.152;9.282;2023-04-15T11:24:26;15.10;92.80
19968;DHT22;10145;49.152;9.282;2023-04-15T11:26:56;15.50;90.50
19968;DHT22;10145;49.152;9.282;2023-04-15T11:29:30;15.60;87.70
19968;DHT22;10145;49.152;9.282;2023-04-15T11:32:04;15.40;91.30
19968;DHT22;10145;49.152;9.282;2023-04-15T11:34:31;15.60;83.00
19968;DHT22;10145;49.152;9.282;2023-04-15T11:36:57;15.70;79.20
19968;DHT22;10145;49.152;9.282;2023-04-15T11:39:22;15.80;77.20
19968;DHT22;10145;49.152;9.282;2023-04-15T11:41:48;16.00;80.30
19968;DHT22;10145;49.152;9.282;2023-04-15T11:44:17;16.10;76.90
19968;DHT22;10145;49.152;9.282;2023-04-15T11:46:43;15.90;75.50
19968;DHT22;10145;49.152;9.282;2023-04-15T11:49:08;16.30;74.40
19968;DHT22;10145;49.152;9.282;2023-04-15T11:51:35;16.00;75.90
19968;DHT22;10145;49.152;9.282;2023-04-15T11:54:01;16.20;75.80
19968;DHT22;10145;49.152;9.282;2023-04-15T11:56:26;16.00;75.80
19968;DHT22;10145;49.152;9.282;2023-04-15T11:58:56;16.20;74.10
19968;DHT22;10145;49.152;9.282;2023-04-15T12:01:34;15.80;76.10
19968;DHT22;10145;49.152;9.282;2023-04-15T12:04:00;15.50;78.10
19968;DHT22;10145;49.152;9.282;2023-04-15T12:06:31;14.90;80.60
19968;DHT22;10145;49.152;9.282;2023-04-15T12:11:46;14.70;81.30
19968;DHT22;10145;49.152;9.282;2023-04-15T12:14:28;14.40;78.60
19968;DHT22;10145;49.152;9.282;2023-04-15T12:16:57;14.20;80.00
19968;DHT22;10145;49.152;9.282;2023-04-15T12:19:24;13.90;78.20
19968;DHT22;10145;49.152;9.282;2023-04-15T12:21:51;13.90;80.10
19968;DHT22;10145;49.152;9.282;2023-04-15T12:24:20;13.80;79.90
19968;DHT22;10145;49.152;9.282;2023-04-15T12:26:49;13.70;78.80
19968;DHT22;10145;49.152;9.282;2023-04-15T12:29:15;13.80;79.10
19968;DHT22;10145;49.152;9.282;2023-04-15T12:37:04;13.50;72.10
19968;DHT22;10145;49.152;9.282;2023-04-15T12:39:37;13.30;73.20
19968;DHT22;10145;49.152;9.282;2023-04-15T12:42:04;13.20;73.80
19968;DHT22;10145;49.152;9.282;2023-04-15T12:44:30;12.90;76.30
19968;DHT22;10145;49.152;9.282;2023-04-15T12:46:57;12.80;75.20
19968;DHT22;10145;49.152;9.282;2023-04-15T12:49:24;12.70;76.00
19968;DHT22;10145;49.152;9.282;2023-04-15T12:51:54;12.80;76.60
19968;DHT22;10145;49.152;9.282;2023-04-15T12:54:20;12.90;79.20
19968;DHT22;10145;49.152;9.282;2023-04-15T12:56:46;12.90;77.90
19968;DHT22;10145;49.152;9.282;2023-04-15T12:59:20;12.60;82.40
19968;DHT22;10145;49.152;9.282;2023-04-15T13:01:58;12.50;84.20
19968;DHT22;10145;49.152;9.282;2023-04-15T13:04:35;12.40;83.80
19968;DHT22;10145;49.152;9.282;2023-04-15T13:07:01;12.30;86.00
19968;DHT22;10145;49.152;9.282;2023-04-15T13:09:26;12.20;85.60
19968;DHT22;10145;49.152;9.282;2023-04-15T13:11:52;12.10;86.90
19968;DHT22;10145;49.152;9.282;2023-04-15T13:14:18;12.20;87.10
19968;DHT22;10145;49.152;9.282;2023-04-15T13:16:44;12.40;87.40
19968;DHT22;10145;49.152;9.282;2023-04-15T13:19:09;12.50;86.70
19968;DHT22;10145;49.152;9.282;2023-04-15T13:21:35;12.50;88.60
19968;DHT22;10145;49.152;9.282;2023-04-15T13:24:01;12.50;89.60
19968;DHT22;10145;49.152;9.282;2023-04-15T13:26:26;12.60;89.60
19968;DHT22;10145;49.152;9.282;2023-04-15T13:28:52;12.60;87.90
19968;DHT22;10145;49.152;9.282;2023-04-15T13:31:17;12.60;90.20
19968;DHT22;10145;49.152;9.282;2023-04-15T13:33:43;12.90;87.80
19968;DHT22;10145;49.152;9.282;2023-04-15T13:36:09;12.70;88.60
19968;DHT22;10145;49.152;9.282;2023-04-15T13:38:34;12.80;89.60
19968;DHT22;10145;49.152;9.282;2023-04-15T13:41:00;12.80;89.10
19968;DHT22;10145;49.152;9.282;2023-04-15T13:43:26;12.70;87.80
19968;DHT22;10145;49.152;9.282;2023-04-15T13:45:51;12.90;86.50
19968;DHT22;10145;49.152;9.282;2023-04-15T13:48:17;12.90;86.00
19968;DHT22;10145;49.152;9.282;2023-04-15T13:50:42;12.80;87.80
19968;DHT22;10145;49.152;9.282;2023-04-15T13:53:10;12.90;88.90
19968;DHT22;10145;49.152;9.282;2023-04-15T13:55:36;13.10;88.60
19968;DHT22;10145;49.152;9.282;2023-04-15T13:58:06;13.20;89.50
19968;DHT22;10145;49.152;9.282;2023-04-15T14:00:31;13.20;88.30
19968;DHT22;10145;49.152;9.282;2023-04-15T14:02:57;13.10;89.90
19968;DHT22;10145;49.152;9.282;2023-04-15T14:05:22;13.10;91.30
19968;DHT22;10145;49.152;9.282;2023-04-15T14:07:48;13.20;91.30
19968;DHT22;10145;49.152;9.282;2023-04-15T14:10:14;13.30;91.80
19968;DHT22;10145;49.152;9.282;2023-04-15T14:12:40;13.30;92.70
19968;DHT22;10145;49.152;9.282;2023-04-15T14:15:05;12.90;92.10
19968;DHT22;10145;49.152;9.282;2023-04-15T14:17:32;12.70;92.70
19968;DHT22;10145;49.152;9.282;2023-04-15T14:19:58;12.30;93.30
19968;DHT22;10145;49.152;9.282;2023-04-15T14:22:23;12.10;93.10
19968;DHT22;10145;49.152;9.282;2023-04-15T14:24:49;11.90;94.80
19968;DHT22;10145;49.152;9.282;2023-04-15T14:27:17;11.60;95.30
19968;DHT22;10145;49.152;9.282;2023-04-15T14:29:42;11.50;95.90
19968;DHT22;10145;49.152;9.282;2023-04-15T14:32:08;11.40;97.70
19968;DHT22;10145;49.152;9.282;2023-04-15T14:34:34;11.40;98.60
19968;DHT22;10145;49.152;9.282;2023-04-15T14:36:59;11.40;99.90
19968;DHT22;10145;49.152;9.282;2023-04-15T14:39:25;11.30;99.90
19968;DHT22;10145;49.152;9.282;2023-04-15T14:41:51;11.30;99.90
19968;DHT22;10145;49.152;9.282;2023-04-15T14:44:17;11.20;99.90
19968;DHT22;10145;49.152;9.282;2023-04-15T14:46:42;11.20;99.90
19968;DHT22;10145;49.152;9.282;2023-04-15T14:49:08;11.10;99.90
19968;DHT22;10145;49.152;9.282;2023-04-15T14:51:33;11.30;99.90
19968;DHT22;10145;49.152;9.282;2023-04-15T14:53:59;11.30;99.90
19968;DHT22;10145;49.152;9.282;2023-04-15T14:56:25;11.20;99.90
19968;DHT22;10145;49.152;9.282;2023-04-15T14:58:51;11.10;99.90
19968;DHT22;10145;49.152;9.282;2023-04-15T15:01:19;11.00;99.90
19968;DHT22;10145;49.152;9.282;2023-04-15T15:03:44;11.00;99.90
19968;DHT22;10145;49.152;9.282;2023-04-15T15:06:10;11.00;99.90
19968;DHT22;10145;49.152;9.282;2023-04-15T15:08:35;10.90;99.90
19968;DHT22;10145;49.152;9.282;2023-04-15T15:11:01;10.80;99.90
19968;DHT22;10145;49.152;9.282;2023-04-15T15:13:27;10.80;99.90
19968;DHT22;10145;49.152;9.282;2023-04-15T15:15:52;10.70;99.90
19968;DHT22;10145;49.152;9.282;2023-04-15T15:18:18;10.60;99.90
19968;DHT22;10145;49.152;9.282;2023-04-15T15:20:44;10.60;99.90
19968;DHT22;10145;49.152;9.282;2023-04-15T15:23:09;10.50;99.90
19968;DHT22;10145;49.152;9.282;2023-04-15T15:25:35;10.30;99.90
19968;DHT22;10145;49.152;9.282;2023-04-15T15:28:00;10.30;99.90
19968;DHT22;10145;49.152;9.282;2023-04-15T15:30:26;10.00;99.90
19968;DHT22;10145;49.152;9.282;2023-04-15T15:32:52;9.60;99.90
19968;DHT22;10145;49.152;9.282;2023-04-15T15:35:17;9.40;99.90
19968;DHT22;10145;49.152;9.282;2023-04-15T15:37:43;9.20;99.90
19968;DHT22;10145;49.152;9.282;2023-04-15T15:40:10;9.10;99.90
19968;DHT22;10145;49.152;9.282;2023-04-15T15:42:36;9.00;99.90
19968;DHT22;10145;49.152;9.282;2023-04-15T15:45:02;9.00;99.90
19968;DHT22;10145;49.152;9.282;2023-04-15T15:47:28;8.90;99.90
19968;DHT22;10145;49.152;9.282;2023-04-15T15:49:54;8.90;99.90
19968;DHT22;10145;49.152;9.282;2023-04-15T15:52:19;8.90;99.90
19968;DHT22;10145;49.152;9.282;2023-04-15T15:54:45;9.00;99.90